Data Viewer
| City | State | Eastern Time | Source | Temp | DewPt | RH | BP | 5 Min Precip | Wind Speed | Wind Dir | 5 Min Wind Max | 5 Min Wind Max Dir |
|---|---|---|---|---|---|---|---|---|---|---|---|---|
| Islip | NY | 2026-05-02 17:55 | ASOS | 55 | 41 | 58 | 29.82 | 7 | NNE | |||
| Islip | NY | 2026-05-03 09:30 | ASOS | 48 | 28 | 46 | 29.84 | 22 | NW | |||
| Islip | NY | 2026-05-03 09:56 | ASOS | 51 | 29 | 42 | 29.84 | 21 | NW | |||
| Islip | NY | 2026-05-03 09:55 | ASOS | 50 | 28 | 43 | 29.84 | 18 | NW | |||
| Islip | NY | 2026-05-03 09:50 | ASOS | 52 | 28 | 40 | 29.83 | 22 | NW | |||
| Islip | NY | 2026-05-03 09:45 | ASOS | 50 | 28 | 43 | 29.84 | 20 | NNW | |||
| Islip | NY | 2026-05-03 09:40 | ASOS | 52 | 30 | 43 | 29.83 | 20 | NNW | |||
| Islip | NY | 2026-05-03 09:35 | ASOS | 50 | 30 | 46 | 29.84 | 18 | NNW | |||
| Islip | NY | 2026-05-03 09:25 | ASOS | 48 | 28 | 46 | 29.84 | 22 | NW | |||
| Islip | NY | 2026-05-03 10:05 | ASOS | 52 | 28 | 40 | 29.83 | 21 | NW | |||
| Islip | NY | 2026-05-03 09:20 | ASOS | 48 | 30 | 50 | 29.85 | 17 | NNW | |||
| Islip | NY | 2026-05-03 09:15 | ASOS | 48 | 28 | 46 | 29.84 | 17 | NW | |||
| Islip | NY | 2026-05-03 09:10 | ASOS | 48 | 28 | 46 | 29.85 | 21 | NW | |||
| Islip | NY | 2026-05-03 09:05 | ASOS | 48 | 28 | 46 | 29.85 | 18 | NW | |||
| Islip | NY | 2026-05-03 08:56 | ASOS | 48 | 29 | 47 | 29.84 | 14 | NW | |||
| Islip | NY | 2026-05-03 08:55 | ASOS | 46 | 28 | 49 | 29.84 | 13 | NW | |||
| Islip | NY | 2026-05-03 10:00 | ASOS | 52 | 28 | 40 | 29.83 | 18 | WNW | |||
| Islip | NY | 2026-05-03 10:10 | ASOS | 52 | 28 | 40 | 29.83 | 20 | NW | |||
| Islip | NY | 2026-05-03 08:45 | ASOS | 48 | 30 | 50 | 29.84 | 18 | NW | |||
| Islip | NY | 2026-05-03 11:00 | ASOS | 54 | 28 | 38 | 29.83 | 18 | NW | |||
| Islip | NY | 2026-05-03 11:30 | ASOS | 52 | 26 | 37 | 29.84 | 22 | NW | |||
| Islip | NY | 2026-05-03 11:25 | ASOS | 54 | 26 | 35 | 29.84 | 23 | NW | |||
| Islip | NY | 2026-05-03 11:20 | ASOS | 54 | 26 | 35 | 29.83 | 23 | NW | |||
| Islip | NY | 2026-05-03 11:15 | ASOS | 54 | 28 | 38 | 29.83 | 24 | NNW | |||
| Islip | NY | 2026-05-03 11:10 | ASOS | 54 | 28 | 38 | 29.83 | 21 | NNW | |||
| Islip | NY | 2026-05-03 11:05 | ASOS | 54 | 28 | 38 | 29.83 | 16 | NW | |||
| Islip | NY | 2026-05-03 10:55 | ASOS | 54 | 28 | 38 | 29.83 | 22 | NNW | |||
| Islip | NY | 2026-05-03 10:15 | ASOS | 52 | 28 | 40 | 29.84 | 17 | WNW | |||
| Islip | NY | 2026-05-03 10:50 | ASOS | 52 | 28 | 40 | 29.83 | 22 | NNW | |||
| Islip | NY | 2026-05-03 10:45 | ASOS | 52 | 28 | 40 | 29.83 | 21 | NNW | |||
| Islip | NY | 2026-05-03 10:40 | ASOS | 52 | 28 | 40 | 29.83 | 21 | NW | |||
| Islip | NY | 2026-05-03 10:35 | ASOS | 52 | 28 | 40 | 29.83 | 18 | NNW | |||
| Islip | NY | 2026-05-03 10:30 | ASOS | 52 | 28 | 40 | 29.83 | 23 | WNW | |||
| Islip | NY | 2026-05-03 10:25 | ASOS | 52 | 28 | 40 | 29.84 | 23 | NW | |||
| Islip | NY | 2026-05-03 10:20 | ASOS | 52 | 28 | 40 | 29.83 | 23 | NNW | |||
| Islip | NY | 2026-05-03 08:50 | ASOS | 46 | 28 | 49 | 29.84 | 21 | NNW | |||
| Islip | NY | 2026-05-03 08:40 | ASOS | 46 | 30 | 53 | 29.84 | 24 | NNW | |||
| Islip | NY | 2026-05-03 11:40 | ASOS | 52 | 26 | 37 | 29.84 | 21 | NW | |||
| Islip | NY | 2026-05-03 06:35 | ASOS | 45 | 28 | 53 | 29.82 | 20 | N | |||
| Islip | NY | 2026-05-03 07:00 | ASOS | 45 | 30 | 57 | 29.83 | 16 | NNW | |||
| Islip | NY | 2026-05-03 06:56 | ASOS | 44 | 30 | 57 | 29.83 | 16 | NNW | |||
| Islip | NY | 2026-05-03 06:55 | ASOS | 45 | 30 | 57 | 29.83 | 16 | NNW | |||
| Islip | NY | 2026-05-03 06:50 | ASOS | 45 | 30 | 57 | 29.83 | 18 | NNW | |||
| Islip | NY | 2026-05-03 06:45 | ASOS | 45 | 28 | 53 | 29.83 | 18 | NNW | |||
| Islip | NY | 2026-05-03 06:40 | ASOS | 45 | 28 | 53 | 29.82 | 14 | NNW | |||
| Islip | NY | 2026-05-03 06:30 | ASOS | 45 | 28 | 53 | 29.82 | 16 | NNW | |||
| Islip | NY | 2026-05-03 07:10 | ASOS | 45 | 30 | 57 | 29.83 | 17 | NNW | |||
| Islip | NY | 2026-05-03 06:25 | ASOS | 45 | 28 | 53 | 29.82 | 16 | NNW | |||
| Islip | NY | 2026-05-03 06:20 | ASOS | 45 | 28 | 53 | 29.81 | 16 | NNW | |||
| Islip | NY | 2026-05-03 06:10 | ASOS | 43 | 28 | 56 | 29.81 | 13 | N | |||
| Islip | NY | 2026-05-03 06:05 | ASOS | 43 | 28 | 56 | 29.81 | 15 | N | |||
| Islip | NY | 2026-05-03 06:00 | ASOS | 43 | 28 | 56 | 29.81 | 14 | NNW | |||
| Islip | NY | 2026-05-03 05:56 | ASOS | 43 | 28 | 55 | 29.81 | 14 | NNW | |||
| Islip | NY | 2026-05-03 07:05 | ASOS | 45 | 30 | 57 | 29.83 | 20 | NNW | |||
| Islip | NY | 2026-05-03 07:15 | ASOS | 45 | 30 | 57 | 29.83 | 14 | NW | |||
| Islip | NY | 2026-05-03 08:35 | ASOS | 46 | 30 | 53 | 29.84 | 18 | NW | |||
| Islip | NY | 2026-05-03 08:00 | ASOS | 45 | 28 | 53 | 29.84 | 20 | NNW | |||
| Islip | NY | 2026-05-03 08:30 | ASOS | 46 | 28 | 49 | 29.84 | 17 | NNW | |||
| Islip | NY | 2026-05-03 08:25 | ASOS | 46 | 30 | 53 | 29.84 | 20 | NW | |||
| Islip | NY | 2026-05-03 08:20 | ASOS | 46 | 30 | 53 | 29.84 | 17 | NW | |||
| Islip | NY | 2026-05-03 08:15 | ASOS | 46 | 30 | 53 | 29.84 | 20 | NW | |||
| Islip | NY | 2026-05-03 08:10 | ASOS | 46 | 30 | 53 | 29.84 | 21 | NNW | |||
| Islip | NY | 2026-05-03 08:05 | ASOS | 45 | 30 | 57 | 29.84 | 17 | NNW | |||
| Islip | NY | 2026-05-03 07:56 | ASOS | 46 | 29 | 51 | 29.84 | 18 | NW | |||
| Islip | NY | 2026-05-03 07:20 | ASOS | 45 | 30 | 57 | 29.83 | 20 | NNW | |||
| Islip | NY | 2026-05-03 07:55 | ASOS | 46 | 30 | 53 | 29.84 | 17 | NW | |||
| Islip | NY | 2026-05-03 07:50 | ASOS | 46 | 30 | 53 | 29.84 | 18 | NW | |||
| Islip | NY | 2026-05-03 07:45 | ASOS | 46 | 30 | 53 | 29.84 | 20 | NNW | |||
| Islip | NY | 2026-05-03 07:40 | ASOS | 45 | 30 | 57 | 29.84 | 16 | NNW | |||
| Islip | NY | 2026-05-03 07:35 | ASOS | 45 | 30 | 57 | 29.84 | 18 | NNW | |||
| Islip | NY | 2026-05-03 07:30 | ASOS | 45 | 30 | 57 | 29.83 | 16 | NW | |||
| Islip | NY | 2026-05-03 07:25 | ASOS | 45 | 30 | 57 | 29.83 | 16 | NNW | |||
| Islip | NY | 2026-05-03 11:35 | ASOS | 52 | 26 | 37 | 29.84 | 22 | WNW | |||
| Islip | NY | 2026-05-03 11:45 | ASOS | 52 | 26 | 37 | 29.84 | 20 | NNW | |||
| Islip | NY | 2026-05-03 05:50 | ASOS | 43 | 28 | 56 | 29.81 | 13 | NNW | |||
| Islip | NY | 2026-05-03 15:30 | ASOS | 55 | 23 | 28 | 29.82 | 22 | W | |||
| Islip | NY | 2026-05-03 16:05 | ASOS | 57 | 25 | 28 | 29.82 | |||||
| Islip | NY | 2026-05-03 16:00 | ASOS | 57 | 23 | 26 | 29.82 | 21 | WNW | |||
| Islip | NY | 2026-05-03 15:56 | ASOS | 56 | 23 | 28 | 29.82 | 22 | WNW | |||
| Islip | NY | 2026-05-03 15:50 | ASOS | 57 | 25 | 28 | 29.82 | 18 | WNW | |||
| Islip | NY | 2026-05-03 15:45 | ASOS | 55 | 23 | 28 | 29.82 | 22 | WNW | |||
| Islip | NY | 2026-05-03 15:40 | ASOS | 55 | 25 | 30 | 29.82 | 21 | WNW | |||
| Islip | NY | 2026-05-03 15:25 | ASOS | 55 | 25 | 30 | 29.82 | 22 | WNW | |||
| Islip | NY | 2026-05-03 16:15 | ASOS | 55 | 23 | 28 | 29.81 | 21 | NW | |||
| Islip | NY | 2026-05-03 15:20 | ASOS | 55 | 25 | 30 | 29.82 | 23 | WNW | |||
| Islip | NY | 2026-05-03 15:15 | ASOS | 55 | 25 | 30 | 29.83 | 17 | WNW | |||
| Islip | NY | 2026-05-03 15:10 | ASOS | 55 | 23 | 28 | 29.83 | 23 | NW | |||
| Islip | NY | 2026-05-03 15:05 | ASOS | 57 | 23 | 26 | 29.82 | 23 | WNW | |||
| Islip | NY | 2026-05-03 15:00 | ASOS | 57 | 23 | 26 | 29.82 | 23 | W | |||
| Islip | NY | 2026-05-03 14:56 | ASOS | 56 | 23 | 28 | 29.82 | 24 | WNW | |||
| Islip | NY | 2026-05-03 16:10 | ASOS | 57 | 23 | 26 | 29.81 | 23 | WNW | |||
| Islip | NY | 2026-05-03 16:20 | ASOS | 55 | 21 | 26 | 29.81 | 20 | NW | |||
| Islip | NY | 2026-05-03 14:40 | ASOS | 55 | 21 | 26 | 29.82 | 24 | WNW | |||
| Islip | NY | 2026-05-03 17:10 | ASOS | 59 | 21 | 23 | 29.81 | 13 | WNW | |||
| Islip | NY | 2026-05-03 17:40 | ASOS | 57 | 19 | 23 | 29.82 | 17 | NW | |||
| Islip | NY | 2026-05-03 17:35 | ASOS | 57 | 21 | 24 | 29.82 | 18 | NW | |||
| Islip | NY | 2026-05-03 17:30 | ASOS | 57 | 21 | 24 | 29.81 | 22 | NW | |||
| Islip | NY | 2026-05-03 17:25 | ASOS | 57 | 21 | 24 | 29.81 | 20 | W | |||
| Islip | NY | 2026-05-03 17:20 | ASOS | 57 | 21 | 24 | 29.81 | 17 | WNW | |||
| Islip | NY | 2026-05-03 17:15 | ASOS | 57 | 21 | 24 | 29.81 | 22 | WNW | |||
| Islip | NY | 2026-05-03 17:05 | ASOS | 57 | 21 | 24 | 29.81 | 15 | W | |||
| Islip | NY | 2026-05-03 16:25 | ASOS | 57 | 23 | 26 | 29.81 | 18 | NW | |||
| Islip | NY | 2026-05-03 17:00 | ASOS | 57 | 23 | 26 | 29.81 | 17 | W | |||
| Islip | NY | 2026-05-03 16:56 | ASOS | 58 | 22 | 25 | 29.81 | 16 | WNW | |||
| Islip | NY | 2026-05-03 16:50 | ASOS | 59 | 23 | 25 | 29.81 | 18 | WNW | |||
| Islip | NY | 2026-05-03 16:45 | ASOS | 57 | 23 | 26 | 29.81 | 17 | WNW | |||
| Islip | NY | 2026-05-03 16:40 | ASOS | 57 | 23 | 26 | 29.81 | 18 | WNW | |||
| Islip | NY | 2026-05-03 16:35 | ASOS | 57 | 23 | 26 | 29.81 | 17 | WNW | |||
| Islip | NY | 2026-05-03 16:30 | ASOS | 57 | 23 | 26 | 29.81 | 21 | NW | |||
| Islip | NY | 2026-05-03 14:45 | ASOS | 55 | 21 | 26 | 29.82 | 22 | WNW | |||
| Islip | NY | 2026-05-03 14:35 | ASOS | 57 | 23 | 26 | 29.82 | 22 | WNW | |||
| Islip | NY | 2026-05-03 11:50 | ASOS | 50 | 26 | 40 | 29.85 | 18 | NW | |||
| Islip | NY | 2026-05-03 12:25 | ASOS | 52 | 25 | 35 | 29.84 | 18 | NW | |||
| Islip | NY | 2026-05-03 12:56 | ASOS | 53 | 27 | 36 | 29.83 | 15 | NW | |||
| Islip | NY | 2026-05-03 12:50 | ASOS | 54 | 26 | 35 | 29.83 | 15 | NW | |||
| Islip | NY | 2026-05-03 12:45 | ASOS | 52 | 26 | 37 | 29.84 | 13 | WNW | |||
| Islip | NY | 2026-05-03 12:40 | ASOS | 52 | 26 | 37 | 29.84 | 16 | WNW | |||
| Islip | NY | 2026-05-03 12:35 | ASOS | 52 | 26 | 37 | 29.84 | 15 | NW | |||
| Islip | NY | 2026-05-03 12:30 | ASOS | 52 | 26 | 37 | 29.84 | 15 | NW | |||
| Islip | NY | 2026-05-03 12:20 | ASOS | 52 | 25 | 35 | 29.84 | 22 | WNW | |||
| Islip | NY | 2026-05-03 13:05 | ASOS | 52 | 26 | 37 | 29.84 | 18 | NW | |||
| Islip | NY | 2026-05-03 12:15 | ASOS | 52 | 25 | 35 | 29.84 | 18 | NW | |||
| Islip | NY | 2026-05-03 12:10 | ASOS | 52 | 25 | 35 | 29.84 | 18 | NW | |||
| Islip | NY | 2026-05-03 12:05 | ASOS | 52 | 25 | 35 | 29.84 | 17 | NW | |||
| Islip | NY | 2026-05-03 12:00 | ASOS | 52 | 26 | 37 | 29.84 | 22 | WNW | |||
| Islip | NY | 2026-05-03 11:56 | ASOS | 51 | 27 | 39 | 29.84 | 16 | WNW | |||
| Islip | NY | 2026-05-03 11:55 | ASOS | 52 | 26 | 37 | 29.84 | 16 | NW | |||
| Islip | NY | 2026-05-03 13:00 | ASOS | 52 | 26 | 37 | 29.83 | 20 | NNW | |||
| Islip | NY | 2026-05-03 13:10 | ASOS | 54 | 26 | 35 | 29.83 | 20 | WNW | |||
| Islip | NY | 2026-05-03 14:30 | ASOS | 55 | 21 | 26 | 29.82 | 16 | WNW | |||
| Islip | NY | 2026-05-03 13:56 | ASOS | 57 | 23 | 27 | 29.82 | 22 | WNW | |||
| Islip | NY | 2026-05-03 14:25 | ASOS | 57 | 23 | 26 | 29.82 | 16 | WNW | |||
| Islip | NY | 2026-05-03 14:20 | ASOS | 57 | 25 | 28 | 29.82 | 20 | W | |||
| Islip | NY | 2026-05-03 14:15 | ASOS | 55 | 21 | 26 | 29.82 | 18 | NW | |||
| Islip | NY | 2026-05-03 14:10 | ASOS | 55 | 21 | 26 | 29.82 | 22 | NW | |||
| Islip | NY | 2026-05-03 14:05 | ASOS | 55 | 21 | 26 | 29.82 | 24 | NW | |||
| Islip | NY | 2026-05-03 14:00 | ASOS | 57 | 21 | 24 | 29.82 | 21 | WNW | |||
| Islip | NY | 2026-05-03 13:55 | ASOS | 57 | 23 | 26 | 29.82 | 17 | WNW | |||
| Islip | NY | 2026-05-03 13:15 | ASOS | 54 | 25 | 32 | 29.83 | 18 | WNW | |||
| Islip | NY | 2026-05-03 13:50 | ASOS | 55 | 25 | 30 | 29.82 | 15 | WNW | |||
| Islip | NY | 2026-05-03 13:45 | ASOS | 55 | 23 | 28 | 29.82 | 13 | WNW | |||
| Islip | NY | 2026-05-03 13:40 | ASOS | 55 | 25 | 30 | 29.83 | 17 | WNW | |||
| Islip | NY | 2026-05-03 13:35 | ASOS | 54 | 25 | 32 | 29.83 | 15 | WNW | |||
| Islip | NY | 2026-05-03 13:30 | ASOS | 54 | 25 | 32 | 29.83 | 18 | NW | |||
| Islip | NY | 2026-05-03 13:25 | ASOS | 55 | 26 | 33 | 29.82 | 13 | WNW | |||
| Islip | NY | 2026-05-03 13:20 | ASOS | 55 | 25 | 30 | 29.83 | 15 | WNW | |||
| Islip | NY | 2026-05-03 05:55 | ASOS | 43 | 28 | 56 | 29.81 | 13 | NNW | |||
| Islip | NY | 2026-05-03 05:45 | ASOS | 43 | 28 | 56 | 29.81 | 13 | N | |||
| Islip | NY | 2026-05-02 17:56 | ASOS | 56 | 41 | 57 | 29.82 | 8 | NE | |||
| Islip | NY | 2026-05-02 21:35 | ASOS | 52 | 45 | 76 | 29.84 | 0 | N | |||
| Islip | NY | 2026-05-02 22:00 | ASOS | 50 | 45 | 82 | 29.85 | 0 | N | |||
| Islip | NY | 2026-05-02 21:56 | ASOS | 49 | 45 | 86 | 29.85 | 5 | NW | |||
| Islip | NY | 2026-05-02 21:55 | ASOS | 48 | 45 | 87 | 29.85 | 3 | NW | |||
| Islip | NY | 2026-05-02 21:50 | ASOS | 48 | 45 | 87 | 29.85 | 0 | N | |||
| Islip | NY | 2026-05-02 21:45 | ASOS | 48 | 45 | 87 | 29.85 | 0 | N | |||
| Islip | NY | 2026-05-02 21:40 | ASOS | 50 | 45 | 82 | 29.84 | 3 | NNE | |||
| Islip | NY | 2026-05-02 21:30 | ASOS | 52 | 45 | 76 | 29.84 | 0 | N | |||
| Islip | NY | 2026-05-02 22:10 | ASOS | 50 | 45 | 82 | 29.85 | 3 | W | |||
| Islip | NY | 2026-05-02 21:25 | ASOS | 52 | 45 | 76 | 29.84 | 0 | N | |||
| Islip | NY | 2026-05-02 21:20 | ASOS | 52 | 45 | 76 | 29.84 | 0 | N | |||
| Islip | NY | 2026-05-02 21:15 | ASOS | 52 | 45 | 76 | 29.84 | 3 | S | |||
| Islip | NY | 2026-05-02 21:10 | ASOS | 52 | 45 | 76 | 29.84 | 3 | SSW | |||
| Islip | NY | 2026-05-02 21:05 | ASOS | 52 | 45 | 76 | 29.84 | 3 | SW | |||
| Islip | NY | 2026-05-02 21:00 | ASOS | 52 | 45 | 76 | 29.84 | 3 | SW | |||
| Islip | NY | 2026-05-02 22:05 | ASOS | 50 | 46 | 87 | 29.85 | 3 | NW | |||
| Islip | NY | 2026-05-02 22:15 | ASOS | 50 | 45 | 82 | 29.85 | 5 | W | |||
| Islip | NY | 2026-05-02 20:55 | ASOS | 52 | 45 | 76 | 29.83 | 0 | N | |||
| Islip | NY | 2026-05-02 23:00 | ASOS | 52 | 39 | 62 | 29.83 | 9 | N | |||
| Islip | NY | 2026-05-02 23:30 | ASOS | 52 | 32 | 47 | 29.83 | 9 | N | |||
| Islip | NY | 2026-05-02 23:25 | ASOS | 52 | 32 | 47 | 29.83 | 9 | N | |||
| Islip | NY | 2026-05-02 23:20 | ASOS | 52 | 34 | 50 | 29.83 | 12 | N | |||
| Islip | NY | 2026-05-02 23:15 | ASOS | 52 | 35 | 54 | 29.83 | 10 | N | |||
| Islip | NY | 2026-05-02 23:10 | ASOS | 52 | 35 | 54 | 29.84 | 12 | N | |||
| Islip | NY | 2026-05-02 23:05 | ASOS | 52 | 37 | 58 | 29.83 | 10 | N | |||
| Islip | NY | 2026-05-02 22:56 | ASOS | 51 | 42 | 71 | 29.83 | 7 | NNE | |||
| Islip | NY | 2026-05-02 22:20 | ASOS | 50 | 45 | 82 | 29.85 | 5 | WNW | |||
| Islip | NY | 2026-05-02 22:55 | ASOS | 52 | 43 | 71 | 29.83 | 6 | N | |||
| Islip | NY | 2026-05-02 22:50 | ASOS | 52 | 43 | 71 | 29.83 | 7 | N | |||
| Islip | NY | 2026-05-02 22:45 | ASOS | 50 | 45 | 82 | 29.85 | 8 | NNW | |||
| Islip | NY | 2026-05-02 22:40 | ASOS | 50 | 45 | 82 | 29.85 | 5 | NNW | |||
| Islip | NY | 2026-05-02 22:35 | ASOS | 50 | 45 | 82 | 29.85 | 6 | NW | |||
| Islip | NY | 2026-05-02 22:30 | ASOS | 50 | 45 | 82 | 29.85 | 6 | NW | |||
| Islip | NY | 2026-05-02 22:25 | ASOS | 50 | 45 | 82 | 29.86 | 6 | WNW | |||
| Islip | NY | 2026-05-02 20:56 | ASOS | 52 | 45 | 77 | 29.83 | 0 | N | |||
| Islip | NY | 2026-05-02 20:50 | ASOS | 52 | 45 | 76 | 29.83 | 0 | N | |||
| Islip | NY | 2026-05-02 23:40 | ASOS | 52 | 30 | 43 | 29.84 | 9 | NNE | |||
| Islip | NY | 2026-05-02 18:35 | ASOS | 55 | 43 | 62 | 29.82 | 6 | ESE | |||
| Islip | NY | 2026-05-02 19:05 | ASOS | 55 | 44 | 67 | 29.82 | 6 | SSE | |||
| Islip | NY | 2026-05-02 19:00 | ASOS | 55 | 44 | 67 | 29.82 | 6 | SE | |||
| Islip | NY | 2026-05-02 18:55 | ASOS | 55 | 44 | 67 | 29.82 | 6 | SSE | |||
| Islip | NY | 2026-05-02 18:50 | ASOS | 55 | 44 | 67 | 29.82 | 6 | SE | |||
| Islip | NY | 2026-05-02 18:45 | ASOS | 55 | 44 | 67 | 29.82 | 7 | SSE | |||
| Islip | NY | 2026-05-02 18:40 | ASOS | 55 | 44 | 67 | 29.82 | 6 | SE | |||
| Islip | NY | 2026-05-02 18:30 | ASOS | 57 | 41 | 55 | 29.82 | 3 | NE | |||
| Islip | NY | 2026-05-02 19:15 | ASOS | 54 | 45 | 71 | 29.82 | 7 | SSE | |||
| Islip | NY | 2026-05-02 18:25 | ASOS | 57 | 39 | 51 | 29.82 | 0 | N | |||
| Islip | NY | 2026-05-02 18:20 | ASOS | 57 | 39 | 51 | 29.82 | 5 | NE | |||
| Islip | NY | 2026-05-02 18:15 | ASOS | 57 | 41 | 55 | 29.82 | 6 | ENE | |||
| Islip | NY | 2026-05-02 18:10 | ASOS | 57 | 39 | 51 | 29.82 | 3 | NNE | |||
| Islip | NY | 2026-05-02 18:05 | ASOS | 55 | 41 | 58 | 29.82 | 5 | NE | |||
| Islip | NY | 2026-05-02 18:00 | ASOS | 57 | 41 | 55 | 29.82 | 6 | NE | |||
| Islip | NY | 2026-05-02 19:10 | ASOS | 55 | 44 | 67 | 29.82 | 6 | SSE | |||
| Islip | NY | 2026-05-02 19:20 | ASOS | 54 | 45 | 71 | 29.82 | 8 | SSE | |||
| Islip | NY | 2026-05-02 20:45 | ASOS | 52 | 45 | 76 | 29.83 | 3 | S | |||
| Islip | NY | 2026-05-02 20:10 | ASOS | 54 | 45 | 71 | 29.83 | 5 | S | |||
| Islip | NY | 2026-05-02 20:40 | ASOS | 52 | 45 | 76 | 29.83 | 0 | N | |||
| Islip | NY | 2026-05-02 20:35 | ASOS | 54 | 45 | 71 | 29.83 | 3 | S | |||
| Islip | NY | 2026-05-02 20:30 | ASOS | 52 | 45 | 76 | 29.83 | 3 | S | |||
| Islip | NY | 2026-05-02 20:25 | ASOS | 54 | 45 | 71 | 29.83 | 3 | S | |||
| Islip | NY | 2026-05-02 20:20 | ASOS | 54 | 45 | 71 | 29.83 | 3 | S | |||
| Islip | NY | 2026-05-02 20:15 | ASOS | 54 | 45 | 71 | 29.83 | 6 | S | |||
| Islip | NY | 2026-05-02 20:05 | ASOS | 54 | 45 | 71 | 29.83 | 6 | S | |||
| Islip | NY | 2026-05-02 19:25 | ASOS | 54 | 45 | 71 | 29.82 | 6 | SSE | |||
| Islip | NY | 2026-05-02 20:00 | ASOS | 54 | 45 | 71 | 29.83 | 6 | S | |||
| Islip | NY | 2026-05-02 19:56 | ASOS | 53 | 44 | 71 | 29.83 | 6 | SSE | |||
| Islip | NY | 2026-05-02 19:50 | ASOS | 54 | 45 | 71 | 29.82 | 6 | SSE | |||
| Islip | NY | 2026-05-02 19:45 | ASOS | 54 | 45 | 71 | 29.82 | 7 | SSE | |||
| Islip | NY | 2026-05-02 19:40 | ASOS | 54 | 45 | 71 | 29.82 | 7 | SSE | |||
| Islip | NY | 2026-05-02 19:35 | ASOS | 54 | 45 | 71 | 29.82 | 6 | SSE | |||
| Islip | NY | 2026-05-02 19:30 | ASOS | 54 | 45 | 71 | 29.82 | 7 | SSE | |||
| Islip | NY | 2026-05-02 23:35 | ASOS | 52 | 30 | 43 | 29.83 | 9 | N | |||
| Islip | NY | 2026-05-02 23:45 | ASOS | 52 | 30 | 43 | 29.84 | 8 | NNE | |||
| Islip | NY | 2026-05-03 05:40 | ASOS | 43 | 28 | 56 | 29.81 | 15 | NNW | |||
| Islip | NY | 2026-05-03 03:35 | ASOS | 46 | 28 | 49 | 29.81 | 12 | N | |||
| Islip | NY | 2026-05-03 04:05 | ASOS | 46 | 26 | 46 | 29.82 | 17 | NNW | |||
| Islip | NY | 2026-05-03 04:00 | ASOS | 46 | 28 | 49 | 29.81 | 14 | N | |||
| Islip | NY | 2026-05-03 03:56 | ASOS | 47 | 28 | 48 | 29.81 | 13 | N | |||
| Islip | NY | 2026-05-03 03:50 | ASOS | 46 | 28 | 49 | 29.81 | 15 | N | |||
| Islip | NY | 2026-05-03 03:45 | ASOS | 46 | 28 | 49 | 29.81 | 13 | N | |||
| Islip | NY | 2026-05-03 03:40 | ASOS | 46 | 28 | 49 | 29.81 | 15 | N | |||
| Islip | NY | 2026-05-03 03:30 | ASOS | 46 | 28 | 49 | 29.81 | 15 | N | |||
| Islip | NY | 2026-05-03 04:15 | ASOS | 46 | 26 | 46 | 29.81 | 14 | NNW | |||
| Islip | NY | 2026-05-03 03:25 | ASOS | 46 | 28 | 49 | 29.82 | 14 | N | |||
| Islip | NY | 2026-05-03 03:20 | ASOS | 46 | 26 | 46 | 29.82 | 13 | N | |||
| Islip | NY | 2026-05-03 03:15 | ASOS | 48 | 26 | 43 | 29.82 | 14 | N | |||
| Islip | NY | 2026-05-03 03:10 | ASOS | 48 | 28 | 46 | 29.82 | 15 | N | |||
| Islip | NY | 2026-05-03 03:05 | ASOS | 48 | 26 | 43 | 29.81 | 14 | N | |||
| Islip | NY | 2026-05-03 03:00 | ASOS | 48 | 26 | 43 | 29.81 | 15 | N | |||
| Islip | NY | 2026-05-03 04:10 | ASOS | 46 | 26 | 46 | 29.81 | 14 | N | |||
| Islip | NY | 2026-05-03 04:20 | ASOS | 46 | 26 | 46 | 29.81 | 12 | NNW | |||
| Islip | NY | 2026-05-03 02:55 | ASOS | 48 | 26 | 43 | 29.81 | 18 | N | |||
| Islip | NY | 2026-05-03 05:05 | ASOS | 45 | 26 | 49 | 29.81 | 14 | N | |||
| Islip | NY | 2026-05-03 05:35 | ASOS | 43 | 28 | 56 | 29.81 | 16 | NNW | |||
| Islip | NY | 2026-05-03 05:30 | ASOS | 45 | 28 | 53 | 29.81 | 13 | NNW | |||
| Islip | NY | 2026-05-03 05:25 | ASOS | 43 | 28 | 56 | 29.81 | 14 | N | |||
| Islip | NY | 2026-05-03 05:20 | ASOS | 43 | 28 | 56 | 29.81 | 12 | NNW | |||
| Islip | NY | 2026-05-03 05:15 | ASOS | 45 | 28 | 53 | 29.81 | 15 | NNW | |||
| Islip | NY | 2026-05-03 05:10 | ASOS | 45 | 28 | 53 | 29.81 | 15 | NNW | |||
| Islip | NY | 2026-05-03 05:00 | ASOS | 45 | 26 | 49 | 29.81 | 17 | NNW | |||
| Islip | NY | 2026-05-03 04:25 | ASOS | 45 | 26 | 49 | 29.81 | 13 | NNW | |||
| Islip | NY | 2026-05-03 04:56 | ASOS | 44 | 27 | 51 | 29.81 | 15 | N | |||
| Islip | NY | 2026-05-03 04:55 | ASOS | 45 | 26 | 49 | 29.81 | 16 | N | |||
| Islip | NY | 2026-05-03 04:50 | ASOS | 45 | 26 | 49 | 29.81 | 14 | NNW | |||
| Islip | NY | 2026-05-03 04:45 | ASOS | 45 | 26 | 49 | 29.81 | 15 | NNW | |||
| Islip | NY | 2026-05-03 04:40 | ASOS | 45 | 26 | 49 | 29.81 | 15 | N | |||
| Islip | NY | 2026-05-03 04:35 | ASOS | 45 | 26 | 49 | 29.81 | 15 | NNW | |||
| Islip | NY | 2026-05-03 04:30 | ASOS | 45 | 26 | 49 | 29.81 | 16 | N | |||
| Islip | NY | 2026-05-03 02:56 | ASOS | 48 | 27 | 44 | 29.81 | 16 | N | |||
| Islip | NY | 2026-05-03 02:50 | ASOS | 48 | 26 | 43 | 29.81 | 14 | N | |||
| Islip | NY | 2026-05-02 23:50 | ASOS | 52 | 30 | 43 | 29.84 | 9 | N | |||
| Islip | NY | 2026-05-03 00:35 | ASOS | 50 | 28 | 43 | 29.84 | 10 | N | |||
| Islip | NY | 2026-05-03 01:05 | ASOS | 50 | 30 | 46 | 29.84 | 12 | N | |||
| Islip | NY | 2026-05-03 01:00 | ASOS | 50 | 30 | 46 | 29.84 | 10 | N | |||
| Islip | NY | 2026-05-03 00:56 | ASOS | 50 | 30 | 46 | 29.84 | 12 | NNE | |||
| Islip | NY | 2026-05-03 00:50 | ASOS | 50 | 30 | 46 | 29.85 | 8 | N | |||
| Islip | NY | 2026-05-03 00:45 | ASOS | 50 | 30 | 46 | 29.85 | 10 | N | |||
| Islip | NY | 2026-05-03 00:40 | ASOS | 50 | 30 | 46 | 29.84 | 10 | N | |||
| Islip | NY | 2026-05-03 00:30 | ASOS | 50 | 30 | 46 | 29.84 | 10 | N | |||
| Islip | NY | 2026-05-03 01:20 | ASOS | 50 | 28 | 43 | 29.83 | 10 | N | |||
| Islip | NY | 2026-05-03 00:25 | ASOS | 50 | 28 | 43 | 29.84 | 12 | NNE | |||
| Islip | NY | 2026-05-03 00:20 | ASOS | 50 | 30 | 46 | 29.84 | 13 | NNE | |||
| Islip | NY | 2026-05-03 00:15 | ASOS | 52 | 30 | 43 | 29.84 | 10 | NNE | |||
| Islip | NY | 2026-05-03 00:10 | ASOS | 52 | 30 | 43 | 29.84 | 9 | N | |||
| Islip | NY | 2026-05-03 00:05 | ASOS | 52 | 30 | 43 | 29.85 | 9 | N | |||
| Islip | NY | 2026-05-03 00:00 | ASOS | 52 | 30 | 43 | 29.84 | 12 | NNE | |||
| Islip | NY | 2026-05-02 23:55 | ASOS | 50 | 30 | 46 | 29.85 | 9 | NNE | |||
| Islip | NY | 2026-05-03 01:15 | ASOS | 50 | 28 | 43 | 29.83 | 10 | N | |||
| Islip | NY | 2026-05-03 01:25 | ASOS | 50 | 28 | 43 | 29.84 | 10 | N | |||
| Islip | NY | 2026-05-03 02:45 | ASOS | 48 | 26 | 43 | 29.81 | 16 | N | |||
| Islip | NY | 2026-05-03 02:10 | ASOS | 48 | 28 | 46 | 29.82 | 10 | N | |||
| Islip | NY | 2026-05-03 02:40 | ASOS | 48 | 26 | 43 | 29.81 | 15 | N | |||
| Islip | NY | 2026-05-03 02:35 | ASOS | 48 | 26 | 43 | 29.81 | 15 | N | |||
| Islip | NY | 2026-05-03 02:30 | ASOS | 48 | 28 | 46 | 29.81 | 15 | N | |||
| Islip | NY | 2026-05-03 02:25 | ASOS | 48 | 28 | 46 | 29.82 | 12 | N | |||
| Islip | NY | 2026-05-03 02:20 | ASOS | 48 | 28 | 46 | 29.83 | 8 | N | |||
| Islip | NY | 2026-05-03 02:15 | ASOS | 48 | 28 | 46 | 29.83 | 9 | N | |||
| Islip | NY | 2026-05-03 02:05 | ASOS | 48 | 28 | 46 | 29.82 | 14 | N | |||
| Islip | NY | 2026-05-03 01:30 | ASOS | 48 | 28 | 46 | 29.83 | 12 | N | |||
| Islip | NY | 2026-05-03 02:00 | ASOS | 48 | 28 | 46 | 29.82 | 12 | N | |||
| Islip | NY | 2026-05-03 01:56 | ASOS | 49 | 28 | 44 | 29.82 | 14 | N | |||
| Islip | NY | 2026-05-03 01:55 | ASOS | 48 | 28 | 46 | 29.82 | 13 | N | |||
| Islip | NY | 2026-05-03 01:50 | ASOS | 48 | 30 | 50 | 29.83 | 13 | N | |||
| Islip | NY | 2026-05-03 01:45 | ASOS | 48 | 30 | 50 | 29.82 | 12 | N | |||
| Islip | NY | 2026-05-03 01:40 | ASOS | 48 | 28 | 46 | 29.82 | 10 | N | |||
| Islip | NY | 2026-05-03 01:35 | ASOS | 48 | 28 | 46 | 29.83 | 10 | N | |||
| Islip | NY | 2026-05-03 17:45 | ASOS | 57 | 19 | 23 | 29.82 | 17 | WNW |
data collection created in 0.041913032531738 (queried in 0.008144) rendered in: 0.00060105323791504

